Terminal Aerodrome Forecast
Issued by NWS Mt. Holly, NJ

Home | Current Version | Previous Version | Text Only | Print | Product List | Glossary On
Versions: 1 2 3 4 5 6 7 8 9 10 11 12 13 14 15 16 17 18 19 20 21 22 23 24 25 26
000
FTUS41 KPHI 301728
TAFTTN
TAF
KTTN 301728Z 3018/3118 22005KT P6SM OVC090
     FM302300 15005KT P6SM BKN050 OVC090 PROB30 3105/3107 4SM -RA
      OVC025
     FM310700 12007KT 4SM -RA OVC025
     FM310900 10010KT 4SM RA BKN008 OVC010
     FM311400 10012KT 1SM RA BKN003 OVC008=

USA.gov is the U.S. government's official web portal to all federal, state and local government web resources and services.